createdAt,value
2023-03-18T00:00:10.218Z,7.43
2023-03-18T00:02:51.632Z,7.50
2023-03-18T00:08:37.313Z,7.33
2023-03-18T00:11:39.458Z,7.70
2023-03-18T00:14:39.198Z,7.47
2023-03-18T00:21:02.202Z,6.87
2023-03-18T00:24:23.278Z,7.40
2023-03-18T00:30:13.383Z,6.70
2023-03-18T00:33:22.452Z,7.63
2023-03-18T00:36:13.829Z,7.60
2023-03-18T00:38:51.974Z,7.97
2023-03-18T00:44:50.141Z,7.27
2023-03-18T00:47:27.217Z,6.93
2023-03-18T00:51:22.020Z,7.47
2023-03-18T00:54:46.013Z,7.10
2023-03-18T01:02:46.787Z,6.90
2023-03-18T01:06:04.857Z,7.30
2023-03-18T01:12:14.152Z,7.50
2023-03-18T01:15:15.346Z,7.43
2023-03-18T01:22:36.077Z,7.20
2023-03-18T01:25:51.942Z,7.00
2023-03-18T01:28:56.691Z,7.23
2023-03-18T01:43:02.552Z,6.77
2023-03-18T01:53:28.167Z,6.37
2023-03-18T02:18:51.505Z,6.80
2023-03-18T02:21:43.251Z,7.80
2023-03-18T02:25:09.079Z,7.70
2023-03-18T02:28:58.348Z,7.00
2023-03-18T02:41:35.568Z,7.20
2023-03-18T02:45:03.125Z,7.40
2023-03-18T02:49:19.698Z,7.00
2023-03-18T02:59:37.189Z,6.70
2023-03-18T03:02:05.820Z,7.27
2023-03-18T03:04:34.974Z,7.33
2023-03-18T03:07:03.488Z,7.33
2023-03-18T03:09:38.310Z,7.83
2023-03-18T03:12:09.298Z,7.50
2023-03-18T03:14:44.293Z,7.77
2023-03-18T03:17:15.336Z,8.07
2023-03-18T03:19:45.866Z,7.37
2023-03-18T03:22:17.406Z,7.87
2023-03-18T03:24:48.786Z,7.40
2023-03-18T03:27:17.791Z,8.30
2023-03-18T03:29:47.521Z,7.00
2023-03-18T03:32:16.091Z,7.20
2023-03-18T03:34:44.508Z,6.97
2023-03-18T03:37:13.457Z,6.70
2023-03-18T03:39:42.145Z,7.00
2023-03-18T03:42:11.316Z,7.53
2023-03-18T03:44:40.794Z,7.70
2023-03-18T03:47:11.364Z,7.07
2023-03-18T03:49:40.323Z,7.00
2023-03-18T03:52:08.837Z,7.77
2023-03-18T03:54:41.559Z,7.60
2023-03-18T03:57:10.598Z,6.33
2023-03-18T03:59:39.091Z,7.03
2023-03-18T04:02:17.719Z,7.10
2023-03-18T04:04:46.446Z,7.30
2023-03-18T04:07:25.451Z,6.97
2023-03-18T04:09:55.970Z,7.37
2023-03-18T04:12:24.767Z,7.03
2023-03-18T04:14:59.171Z,15.07
2023-03-18T04:17:29.427Z,10.93
2023-03-18T04:19:57.820Z,10.37
2023-03-18T04:22:30.976Z,10.40
2023-03-18T04:24:59.633Z,9.67
2023-03-18T04:27:28.855Z,9.33
2023-03-18T04:29:59.073Z,9.43
2023-03-18T04:32:36.984Z,8.73
2023-03-18T04:35:06.301Z,8.20
2023-03-18T04:37:37.415Z,7.77
2023-03-18T04:40:08.060Z,7.27
2023-03-18T04:42:36.724Z,7.13
2023-03-18T04:45:06.230Z,6.47
2023-03-18T04:47:37.191Z,6.43
2023-03-18T04:50:06.460Z,6.23
2023-03-18T04:52:34.880Z,6.90
2023-03-18T04:55:03.374Z,7.20
2023-03-18T04:57:35.581Z,7.80
2023-03-18T05:00:06.823Z,6.83
2023-03-18T05:02:37.138Z,6.33
2023-03-18T05:05:06.512Z,6.40
2023-03-18T05:07:39.054Z,6.27
2023-03-18T05:10:13.520Z,6.47
2023-03-18T05:12:42.127Z,6.27
2023-03-18T05:15:13.158Z,5.83
2023-03-18T05:17:47.652Z,6.03
2023-03-18T05:20:16.609Z,5.50
2023-03-18T05:22:47.350Z,5.93
2023-03-18T05:25:31.747Z,5.53
2023-03-18T05:28:00.281Z,6.00
2023-03-18T05:30:40.408Z,5.60
2023-03-18T05:33:12.930Z,5.93
2023-03-18T05:35:53.750Z,6.57
2023-03-18T05:38:27.717Z,6.37
2023-03-18T05:40:56.463Z,6.17
2023-03-18T05:43:32.759Z,5.70
2023-03-18T05:46:01.167Z,6.63
2023-03-18T05:48:43.588Z,6.57
2023-03-18T05:51:12.665Z,5.77
2023-03-18T05:53:41.249Z,6.23
2023-03-18T05:56:21.234Z,5.80
2023-03-18T05:58:53.347Z,6.40
2023-03-18T06:01:30.155Z,5.73
2023-03-18T06:04:00.623Z,5.87
2023-03-18T06:06:29.384Z,5.50
2023-03-18T06:08:58.555Z,6.00
2023-03-18T06:11:28.249Z,5.30
2023-03-18T06:13:56.871Z,5.67
2023-03-18T06:16:25.894Z,6.57
2023-03-18T06:18:56.710Z,6.30
2023-03-18T06:21:28.552Z,6.33
2023-03-18T06:23:57.583Z,6.60
2023-03-18T06:26:27.689Z,6.20
2023-03-18T06:28:56.625Z,6.00
2023-03-18T06:31:27.347Z,5.80
2023-03-18T06:33:56.105Z,6.23
2023-03-18T06:36:27.407Z,6.60
2023-03-18T06:38:56.031Z,6.80
2023-03-18T06:41:26.410Z,7.17
2023-03-18T06:44:07.039Z,7.30
2023-03-18T06:46:37.292Z,11.33
2023-03-18T06:49:06.851Z,9.07
2023-03-18T06:51:41.024Z,7.93
2023-03-18T06:54:11.148Z,7.87
2023-03-18T06:56:41.703Z,8.33
2023-03-18T06:59:21.547Z,7.80
2023-03-18T07:01:50.580Z,8.33
2023-03-18T07:04:23.850Z,7.83
2023-03-18T07:06:54.634Z,7.07
2023-03-18T07:09:24.587Z,7.57
2023-03-18T07:11:56.760Z,6.73
2023-03-18T07:14:25.183Z,7.23
2023-03-18T07:16:53.921Z,7.03
2023-03-18T07:19:22.964Z,6.77
2023-03-18T07:21:53.384Z,6.90
2023-03-18T07:24:22.898Z,6.40
2023-03-18T07:26:51.742Z,6.43
2023-03-18T07:29:20.616Z,6.13
2023-03-18T07:31:49.259Z,6.37
2023-03-18T07:34:18.816Z,6.77
2023-03-18T07:36:47.148Z,6.20
2023-03-18T07:39:17.185Z,5.97
2023-03-18T07:41:45.563Z,6.00
2023-03-18T07:44:22.184Z,5.90
2023-03-18T07:46:50.522Z,9.83
2023-03-18T07:49:19.013Z,7.63
2023-03-18T07:51:47.367Z,5.70
2023-03-18T07:54:18.097Z,5.47
2023-03-18T07:56:46.685Z,6.03
2023-03-18T07:59:18.192Z,4.73
2023-03-18T08:01:46.941Z,3.50
2023-03-18T08:04:15.341Z,2.53
2023-03-18T08:06:43.801Z,1.50
2023-03-18T08:09:12.335Z,1.33
2023-03-18T08:11:42.495Z,1.00
2023-03-18T08:14:11.110Z,1.50
2023-03-18T08:16:39.732Z,0.93
2023-03-18T08:19:08.345Z,1.03
2023-03-18T08:21:36.752Z,1.30
2023-03-18T08:24:05.676Z,0.90
2023-03-18T08:26:34.241Z,0.93
2023-03-18T08:29:03.986Z,0.80
2023-03-18T08:31:32.362Z,1.20
2023-03-18T08:34:01.527Z,0.97
2023-03-18T08:36:29.872Z,1.10
2023-03-18T08:38:58.358Z,0.80
2023-03-18T08:41:27.230Z,1.10
2023-03-18T08:43:57.498Z,1.00
2023-03-18T08:46:27.308Z,0.80
2023-03-18T08:48:55.738Z,0.97
2023-03-18T08:51:24.255Z,1.20
2023-03-18T08:53:52.724Z,1.20
2023-03-18T08:56:21.007Z,1.20
2023-03-18T08:58:49.826Z,0.90
2023-03-18T09:01:19.861Z,1.20
2023-03-18T09:03:49.839Z,1.13
2023-03-18T09:06:18.943Z,0.90
2023-03-18T09:08:47.299Z,1.10
2023-03-18T09:11:16.215Z,1.10
2023-03-18T09:13:44.612Z,0.90
2023-03-18T09:16:13.024Z,2.03
2023-03-18T09:18:44.306Z,1.20
2023-03-18T09:21:15.065Z,1.27
2023-03-18T09:23:43.456Z,1.30
2023-03-18T09:26:11.797Z,1.20
2023-03-18T09:28:40.480Z,1.10
2023-03-18T09:31:08.911Z,1.17
2023-03-18T09:33:37.722Z,0.73
2023-03-18T09:36:06.915Z,1.10
2023-03-18T09:38:37.257Z,1.20
2023-03-18T09:41:18.795Z,0.90
2023-03-18T09:44:15.102Z,1.10
2023-03-18T09:47:01.103Z,1.50
2023-03-18T09:49:51.719Z,1.37
2023-03-18T09:52:24.402Z,1.40
2023-03-18T09:55:02.680Z,1.20
2023-03-18T09:57:36.895Z,2.27
2023-03-18T10:00:13.548Z,1.77
2023-03-18T10:02:47.570Z,1.40
2023-03-18T10:05:21.166Z,1.23
2023-03-18T10:07:54.607Z,1.00
2023-03-18T10:10:30.370Z,1.67
2023-03-18T10:13:07.649Z,1.50
2023-03-18T10:15:41.531Z,1.20
2023-03-18T10:18:17.024Z,1.50
2023-03-18T10:21:04.155Z,1.70
2023-03-18T10:23:44.994Z,2.37
2023-03-18T10:26:19.891Z,1.43
2023-03-18T10:29:05.264Z,1.50
2023-03-18T10:31:56.160Z,1.80
2023-03-18T10:34:31.198Z,1.80
2023-03-18T10:37:09.143Z,1.70
2023-03-18T10:39:38.969Z,1.77
2023-03-18T10:42:22.114Z,1.57
2023-03-18T10:44:52.609Z,1.90
2023-03-18T10:47:26.084Z,1.80
2023-03-18T10:50:06.121Z,1.60
2023-03-18T10:52:39.679Z,1.43
2023-03-18T10:55:17.808Z,1.50
2023-03-18T10:57:47.758Z,1.20
2023-03-18T11:00:29.559Z,1.88
2023-03-18T11:02:58.375Z,1.90
2023-03-18T11:05:30.612Z,1.42
2023-03-18T11:08:03.597Z,2.13
2023-03-18T11:10:36.593Z,1.93
2023-03-18T11:13:06.619Z,1.83
2023-03-18T11:15:39.786Z,1.63
2023-03-18T11:18:19.423Z,1.40
2023-03-18T11:21:00.726Z,1.90
2023-03-18T11:23:46.437Z,1.90
2023-03-18T11:26:22.970Z,1.83
2023-03-18T11:28:58.327Z,1.98
2023-03-18T11:31:28.077Z,1.65
2023-03-18T11:34:00.625Z,1.45
2023-03-18T11:36:32.415Z,1.63
2023-03-18T11:39:06.273Z,1.35
2023-03-18T11:41:38.870Z,1.90
2023-03-18T11:44:17.760Z,2.25
2023-03-18T11:46:52.345Z,1.70
2023-03-18T11:49:24.862Z,2.08
2023-03-18T11:52:08.373Z,1.63
2023-03-18T11:55:10.780Z,2.15
2023-03-18T11:57:52.777Z,1.77
2023-03-18T12:00:30.601Z,2.08
2023-03-18T12:03:49.913Z,1.83
2023-03-18T12:06:23.005Z,2.10
2023-03-18T12:09:03.253Z,1.30
2023-03-18T12:11:48.716Z,1.42
2023-03-18T12:14:25.877Z,2.38
2023-03-18T12:17:11.878Z,2.17
2023-03-18T12:20:06.924Z,1.85
2023-03-18T12:22:50.718Z,2.30
2023-03-18T12:25:32.937Z,1.73
2023-03-18T12:28:09.705Z,1.40
2023-03-18T12:31:00.621Z,1.50
2023-03-18T12:33:50.939Z,1.27
2023-03-18T12:36:29.504Z,1.70
2023-03-18T12:39:40.155Z,2.53
2023-03-18T12:42:13.564Z,1.83
2023-03-18T12:44:59.924Z,1.30
2023-03-18T12:47:37.065Z,1.38
2023-03-18T12:50:16.059Z,1.83
2023-03-18T12:52:48.647Z,1.75
2023-03-18T12:55:22.859Z,2.00
2023-03-18T12:57:55.974Z,1.70
2023-03-18T13:00:31.348Z,2.03
2023-03-18T13:03:07.471Z,2.20
2023-03-18T13:05:43.697Z,2.65
2023-03-18T13:08:47.413Z,2.30
2023-03-18T13:11:33.397Z,2.40
2023-03-18T13:14:06.945Z,2.05
2023-03-18T13:16:39.112Z,1.95
2023-03-18T13:19:07.547Z,2.05
2023-03-18T13:21:44.063Z,2.05
2023-03-18T13:24:34.094Z,2.63
2023-03-18T13:27:30.317Z,2.00
2023-03-18T13:30:08.325Z,1.83
2023-03-18T13:33:14.098Z,1.88
2023-03-18T13:36:15.728Z,1.80
2023-03-18T13:39:18.878Z,1.45
2023-03-18T13:42:19.638Z,2.08
2023-03-18T13:45:04.997Z,1.85
2023-03-18T13:47:37.954Z,1.60
2023-03-18T13:50:29.048Z,1.35
2023-03-18T13:52:59.714Z,1.35
2023-03-18T13:55:34.246Z,1.50
2023-03-18T13:58:35.936Z,1.27
2023-03-18T14:01:29.828Z,1.77
2023-03-18T14:04:02.980Z,1.50
2023-03-18T14:06:53.065Z,1.38
2023-03-18T14:09:35.359Z,1.10
2023-03-18T14:12:38.618Z,1.20
2023-03-18T14:15:42.580Z,2.53
2023-03-18T14:18:37.109Z,2.95
2023-03-18T14:21:08.756Z,2.75
2023-03-18T14:23:43.824Z,2.78
2023-03-18T14:26:23.491Z,2.42
2023-03-18T14:28:57.979Z,1.92
2023-03-18T14:31:51.358Z,1.60
2023-03-18T14:34:30.671Z,1.60
2023-03-18T14:37:30.302Z,1.63
2023-03-18T14:40:06.045Z,1.50
2023-03-18T14:42:45.772Z,2.10
2023-03-18T14:45:22.284Z,2.40
2023-03-18T14:47:53.694Z,1.95
2023-03-18T14:50:42.130Z,1.90
2023-03-18T14:53:20.333Z,1.90
2023-03-18T14:55:49.868Z,2.58
2023-03-18T14:58:20.481Z,2.80
2023-03-18T15:00:54.096Z,2.85
2023-03-18T15:03:26.706Z,1.85
2023-03-18T15:06:00.571Z,2.28
2023-03-18T15:08:46.920Z,2.30
2023-03-18T15:11:17.523Z,3.35
2023-03-18T15:13:46.460Z,3.03
2023-03-18T15:16:20.560Z,2.70
2023-03-18T15:18:56.023Z,2.50
2023-03-18T15:21:28.761Z,1.85
2023-03-18T15:24:01.089Z,2.10
2023-03-18T15:26:34.993Z,1.95
2023-03-18T15:29:25.035Z,3.08
2023-03-18T15:31:55.253Z,2.70
2023-03-18T15:34:30.107Z,2.60
2023-03-18T15:37:02.212Z,3.03
2023-03-18T15:39:36.175Z,2.10
2023-03-18T15:42:15.523Z,2.00
2023-03-18T15:44:46.366Z,1.45
2023-03-18T15:47:25.421Z,1.55
2023-03-18T15:49:58.766Z,1.30
2023-03-18T15:52:36.582Z,1.65
2023-03-18T15:55:28.029Z,1.60
2023-03-18T15:57:57.907Z,1.88
2023-03-18T16:00:26.979Z,1.80
2023-03-18T16:02:56.788Z,1.48
2023-03-18T16:05:28.219Z,1.92
2023-03-18T16:07:57.004Z,2.10
2023-03-18T16:10:26.622Z,2.25
2023-03-18T16:13:00.409Z,2.70
2023-03-18T16:15:30.029Z,3.00
2023-03-18T16:17:59.907Z,2.53
2023-03-18T16:20:31.551Z,2.28
2023-03-18T16:23:00.263Z,2.75
2023-03-18T16:25:29.206Z,2.03
2023-03-18T16:28:00.731Z,1.38
2023-03-18T16:30:31.953Z,1.60
2023-03-18T16:33:01.856Z,2.08
2023-03-18T16:35:35.930Z,1.50
2023-03-18T16:38:04.745Z,2.05
2023-03-18T16:40:33.885Z,1.40
2023-03-18T16:43:02.384Z,1.35
2023-03-18T16:45:33.152Z,2.08
2023-03-18T16:48:07.699Z,2.03
2023-03-18T16:50:38.474Z,3.33
2023-03-18T16:53:17.537Z,4.20
2023-03-18T16:55:47.441Z,3.00
2023-03-18T16:58:19.592Z,1.85
2023-03-18T17:00:49.761Z,1.90
2023-03-18T17:03:20.528Z,1.80
2023-03-18T17:05:52.079Z,1.58
2023-03-18T17:08:22.700Z,1.60
2023-03-18T17:10:53.876Z,1.30
2023-03-18T17:13:28.840Z,1.48
2023-03-18T17:15:57.709Z,1.52
2023-03-18T17:18:28.168Z,1.73
2023-03-18T17:20:57.111Z,1.42
2023-03-18T17:23:28.886Z,1.30
2023-03-18T17:26:00.323Z,1.40
2023-03-18T17:28:35.316Z,1.55
2023-03-18T17:31:04.569Z,1.23
2023-03-18T17:33:37.705Z,1.55
2023-03-18T17:36:09.441Z,1.40
2023-03-18T17:38:38.234Z,1.70
2023-03-18T17:41:15.478Z,2.00
2023-03-18T17:43:44.328Z,2.22
2023-03-18T17:46:12.884Z,2.80
2023-03-18T17:48:42.761Z,3.30
2023-03-18T17:51:16.833Z,3.58
2023-03-18T17:53:48.011Z,3.67
2023-03-18T17:56:19.417Z,5.67
2023-03-18T17:58:50.539Z,5.17
2023-03-18T18:01:22.273Z,5.67
2023-03-18T18:03:52.228Z,4.70
2023-03-18T18:06:23.533Z,4.37
2023-03-18T18:08:52.577Z,4.63
2023-03-18T18:11:23.869Z,4.77
2023-03-18T18:13:54.737Z,4.30
2023-03-18T18:16:24.217Z,4.10
2023-03-18T18:18:54.009Z,4.10
2023-03-18T18:21:25.774Z,4.20
2023-03-18T18:23:54.175Z,4.17
2023-03-18T18:26:23.019Z,4.07
2023-03-18T18:28:53.389Z,4.43
2023-03-18T18:31:24.034Z,5.70
2023-03-18T18:33:55.829Z,4.10
2023-03-18T18:36:28.094Z,4.57
2023-03-18T18:38:56.928Z,4.80
2023-03-18T18:41:25.945Z,4.33
2023-03-18T18:43:55.575Z,5.00
2023-03-18T18:46:25.033Z,4.83
2023-03-18T18:48:54.870Z,5.20
2023-03-18T18:51:25.384Z,5.17
2023-03-18T18:53:55.356Z,4.97
2023-03-18T18:56:32.200Z,4.87
2023-03-18T18:59:01.559Z,5.20
2023-03-18T19:01:31.143Z,4.90
2023-03-18T19:04:02.760Z,7.43
2023-03-18T19:06:33.651Z,6.57
2023-03-18T19:09:05.209Z,6.33
2023-03-18T19:11:33.827Z,7.40
2023-03-18T19:14:20.040Z,7.00
2023-03-18T19:16:49.381Z,7.43
2023-03-18T19:19:22.450Z,7.87
2023-03-18T19:21:51.124Z,8.43
2023-03-18T19:24:28.468Z,13.53
2023-03-18T19:26:58.980Z,13.47
2023-03-18T19:29:28.144Z,9.43
2023-03-18T19:31:57.079Z,10.47
2023-03-18T19:34:27.121Z,9.83
2023-03-18T19:36:57.228Z,12.07
2023-03-18T19:39:27.884Z,10.40
2023-03-18T19:41:56.618Z,9.97
2023-03-18T19:44:27.130Z,11.17
2023-03-18T19:46:58.841Z,12.33
2023-03-18T19:49:33.214Z,11.70
2023-03-18T19:52:02.309Z,11.57
2023-03-18T19:54:32.857Z,9.10
2023-03-18T19:57:04.327Z,8.50
2023-03-18T19:59:38.778Z,9.43
2023-03-18T20:02:20.966Z,9.50
2023-03-18T20:04:51.202Z,8.40
2023-03-18T20:07:21.079Z,10.13
2023-03-18T20:09:50.119Z,10.70
2023-03-18T20:12:32.787Z,9.80
2023-03-18T20:15:01.250Z,10.03
2023-03-18T20:17:34.894Z,10.17
2023-03-18T20:20:07.367Z,10.53
2023-03-18T20:22:40.161Z,9.97
2023-03-18T20:25:18.066Z,9.80
2023-03-18T20:27:47.430Z,9.47
2023-03-18T20:30:26.207Z,10.00
2023-03-18T20:32:54.639Z,8.60
2023-03-18T20:35:28.449Z,8.80
2023-03-18T20:37:58.672Z,8.60
2023-03-18T20:40:29.906Z,8.47
2023-03-18T20:42:58.776Z,7.97
2023-03-18T20:45:27.337Z,8.70
2023-03-18T20:47:56.671Z,7.53
2023-03-18T20:50:30.851Z,8.63
2023-03-18T20:52:59.401Z,8.70
2023-03-18T20:55:30.862Z,8.17
2023-03-18T20:58:00.731Z,8.93
2023-03-18T21:00:32.761Z,8.50
2023-03-18T21:03:03.449Z,7.80
2023-03-18T21:05:33.582Z,8.23
2023-03-18T21:08:02.234Z,8.60
2023-03-18T21:10:31.209Z,8.40
2023-03-18T21:12:59.577Z,8.07
2023-03-18T21:15:29.517Z,8.33
2023-03-18T21:17:58.359Z,7.80
2023-03-18T21:20:32.670Z,9.10
2023-03-18T21:23:03.002Z,7.90
2023-03-18T21:25:31.928Z,8.53
2023-03-18T21:28:00.429Z,8.20
2023-03-18T21:30:28.883Z,8.27
2023-03-18T21:32:57.276Z,8.23
2023-03-18T21:35:28.962Z,8.00
2023-03-18T21:37:57.276Z,8.23
2023-03-18T21:40:27.325Z,7.87
2023-03-18T21:42:56.397Z,7.80
2023-03-18T21:45:24.964Z,8.17
2023-03-18T21:47:53.561Z,9.60
2023-03-18T21:50:25.249Z,8.63
2023-03-18T21:52:55.194Z,8.17
2023-03-18T21:55:24.039Z,9.10
2023-03-18T21:57:53.832Z,7.53
2023-03-18T22:00:23.234Z,8.70
2023-03-18T22:02:51.698Z,8.43
2023-03-18T22:05:22.999Z,9.63
2023-03-18T22:07:51.800Z,7.10
2023-03-18T22:10:23.249Z,9.07
2023-03-18T22:12:53.276Z,8.87
2023-03-18T22:15:40.464Z,8.87
2023-03-18T22:18:08.918Z,8.27
2023-03-18T22:20:39.039Z,9.17
2023-03-18T22:23:20.131Z,8.00
2023-03-18T22:25:50.848Z,8.80
2023-03-18T22:28:20.917Z,8.63
2023-03-18T22:30:52.412Z,8.53
2023-03-18T22:33:25.007Z,8.80
2023-03-18T22:35:53.568Z,9.40
2023-03-18T22:38:24.500Z,8.63
2023-03-18T22:40:55.779Z,8.80
2023-03-18T22:43:31.824Z,9.70
2023-03-18T22:46:02.138Z,9.50
2023-03-18T22:48:30.676Z,9.63
2023-03-18T22:51:00.443Z,9.13
2023-03-18T22:53:32.272Z,8.47
2023-03-18T22:56:11.486Z,9.47
2023-03-18T22:58:41.377Z,9.10
2023-03-18T23:01:16.334Z,8.97
2023-03-18T23:03:46.285Z,8.30
2023-03-18T23:06:17.338Z,8.03
2023-03-18T23:08:46.647Z,7.90
2023-03-18T23:11:16.483Z,7.63
2023-03-18T23:13:49.857Z,7.53
2023-03-18T23:16:21.333Z,7.40
2023-03-18T23:18:50.913Z,7.40
2023-03-18T23:21:22.180Z,6.43
2023-03-18T23:23:51.094Z,7.23
2023-03-18T23:26:19.909Z,6.80
2023-03-18T23:28:49.738Z,7.37
2023-03-18T23:31:18.520Z,7.30
2023-03-18T23:33:47.309Z,7.00
2023-03-18T23:36:15.864Z,7.03
2023-03-18T23:38:44.210Z,7.93
2023-03-18T23:41:12.585Z,8.00
2023-03-18T23:43:41.157Z,7.10
2023-03-18T23:46:10.927Z,6.67
2023-03-18T23:48:39.283Z,6.80
2023-03-18T23:51:07.868Z,6.63
2023-03-18T23:53:36.530Z,6.70
2023-03-18T23:56:04.959Z,6.27
2023-03-18T23:58:33.364Z,5.63
